Senin
| Ora | Descriere | Temp | Se simte | Precipitatii | Umiditate | Vant |
|---|---|---|---|---|---|---|
| 00:00 | Senin | 14.2° | 13.4° | 0% | 62% | SW 11.9 KM/H |
| 01:00 | Senin | 13.3° | 13.2° | 0% | 71% | W 6.5 KM/H |
| 02:00 | Senin | 12.9° | 12.9° | 0% | 76% | W 2.9 KM/H |
| 03:00 | Senin | 12.8° | 13.3° | 0% | 77% | SSW 4 KM/H |
| 04:00 | Senin | 13° | 13° | 0% | 76% | SSW 6.1 KM/H |
| 05:00 | 12.8° | 12.1° | 0% | 78% | SSW 9 KM/H | |
| 06:00 | 12.5° | 11.7° | 0% | 80% | SSW 9 KM/H | |
| 07:00 | 12.6° | 11.9° | 0% | 81% | S 9.4 KM/H | |
| 08:00 | Senin | 14.7° | 14.2° | 0% | 75% | S 10.1 KM/H |
| 09:00 | Senin | 16.9° | 16.9° | 0% | 66% | S 13.3 KM/H |
| 10:00 | Senin | 18.8° | 18.8° | 0% | 59% | S 14 KM/H |
| 11:00 | 20.3° | 20.3° | 0% | 54% | SSW 13.7 KM/H | |
| 12:00 | Senin | 21.5° | 21.5° | 0% | 51% | SSW 13 KM/H |
| 13:00 | 22.3° | 24.5° | 0% | 49% | SSW 13 KM/H | |
| 14:00 | Senin | 22.7° | 24.6° | 0% | 48% | SSW 13.7 KM/H |
| 15:00 | Senin | 25.2° | 24.8° | 0% | 39% | SSW 14 KM/H |
| 16:00 | Senin | 24.1° | 24.9° | 0% | 42% | SW 13.7 KM/H |
| 17:00 | Senin | 24.2° | 24.9° | 0% | 40% | SW 12.6 KM/H |
| 18:00 | Senin | 23.9° | 24.8° | 0% | 41% | SSW 11.2 KM/H |
| 19:00 | Senin | 23.4° | 24.9° | 0% | 50% | SSW 7.6 KM/H |
| 20:00 | Senin | 20.5° | 20.5° | 0% | 58% | SSE 8.6 KM/H |
| 21:00 | 18.2° | 18.2° | 0% | 61% | SSE 11.2 KM/H | |
| 22:00 | Senin | 17.2° | 17.3° | 0% | 64% | SSE 11.9 KM/H |
| 23:00 | Senin | 16.6° | 16.6° | 0% | 66% | SSE 12.6 KM/H |